createdAt,value
2023-04-17T00:01:44.317Z,73.30
2023-04-17T00:04:13.243Z,73.43
2023-04-17T00:06:43.655Z,73.51
2023-04-17T00:09:11.962Z,73.73
2023-04-17T00:11:39.403Z,73.95
2023-04-17T00:14:06.844Z,73.74
2023-04-17T00:16:33.801Z,73.28
2023-04-17T00:19:00.840Z,73.33
2023-04-17T00:21:30.110Z,73.16
2023-04-17T00:23:57.166Z,73.33
2023-04-17T00:26:24.931Z,73.00
2023-04-17T00:28:52.146Z,73.06
2023-04-17T00:31:19.286Z,72.77
2023-04-17T00:33:46.704Z,72.99
2023-04-17T00:36:15.574Z,72.85
2023-04-17T00:38:42.729Z,72.67
2023-04-17T00:41:09.908Z,72.65
2023-04-17T00:43:36.879Z,72.74
2023-04-17T00:46:05.107Z,72.98
2023-04-17T00:48:33.992Z,72.56
2023-04-17T00:51:02.552Z,72.71
2023-04-17T00:53:33.245Z,72.75
2023-04-17T00:56:01.573Z,72.92
2023-04-17T00:58:28.767Z,72.93
2023-04-17T01:00:56.082Z,72.86
2023-04-17T01:03:23.449Z,73.07
2023-04-17T01:05:52.327Z,72.62
2023-04-17T01:08:19.767Z,72.79
2023-04-17T01:10:46.679Z,72.72
2023-04-17T01:13:13.675Z,72.80
2023-04-17T01:15:40.636Z,72.72
2023-04-17T01:18:07.643Z,72.55
2023-04-17T01:20:35.123Z,72.71
2023-04-17T01:23:02.074Z,72.94
2023-04-17T01:25:29.297Z,72.73
2023-04-17T01:27:57.126Z,72.55
2023-04-17T01:30:24.190Z,72.82
2023-04-17T01:32:54.207Z,73.19
2023-04-17T01:35:21.256Z,73.23
2023-04-17T01:37:48.152Z,73.30
2023-04-17T01:40:15.163Z,72.97
2023-04-17T01:42:42.072Z,73.01
2023-04-17T01:45:09.329Z,72.79
2023-04-17T01:47:36.333Z,72.82
2023-04-17T01:50:04.303Z,72.50
2023-04-17T01:52:31.413Z,72.58
2023-04-17T01:54:58.389Z,72.65
2023-04-17T01:57:25.363Z,72.68
2023-04-17T01:59:52.400Z,73.04
2023-04-17T02:02:22.229Z,73.17
2023-04-17T02:04:49.339Z,73.29
2023-04-17T02:07:16.828Z,73.33
2023-04-17T02:09:43.743Z,73.18
2023-04-17T02:12:10.619Z,73.03
2023-04-17T02:14:37.585Z,73.29
2023-04-17T02:17:04.832Z,72.81
2023-04-17T02:19:31.747Z,72.96
2023-04-17T02:21:58.780Z,72.90
2023-04-17T02:24:25.977Z,72.84
2023-04-17T02:26:52.925Z,73.39
2023-04-17T02:29:20.046Z,73.35
2023-04-17T02:31:47.114Z,73.34
2023-04-17T02:34:14.072Z,73.50
2023-04-17T02:36:41.585Z,73.47
2023-04-17T02:39:08.572Z,73.13
2023-04-17T02:41:35.523Z,73.35
2023-04-17T02:44:03.243Z,73.53
2023-04-17T02:46:30.159Z,73.26
2023-04-17T02:48:57.137Z,73.74
2023-04-17T02:51:24.120Z,73.59
2023-04-17T02:53:51.075Z,73.78
2023-04-17T02:56:18.042Z,73.56
2023-04-17T02:58:45.755Z,73.35
2023-04-17T03:01:12.807Z,73.35
2023-04-17T03:03:42.310Z,73.65
2023-04-17T03:06:10.176Z,73.73
2023-04-17T03:08:39.032Z,73.64
2023-04-17T03:11:06.552Z,73.70
2023-04-17T03:13:39.405Z,73.73
2023-04-17T03:16:06.831Z,73.51
2023-04-17T03:18:36.168Z,73.63
2023-04-17T03:21:03.202Z,73.63
2023-04-17T03:23:30.163Z,73.63
2023-04-17T03:26:00.656Z,73.17
2023-04-17T03:28:27.556Z,73.35
2023-04-17T03:30:58.052Z,73.24
2023-04-17T03:33:25.842Z,73.33
2023-04-17T03:35:52.817Z,73.39
2023-04-17T03:38:19.817Z,74.15
2023-04-17T03:40:47.184Z,73.66
2023-04-17T03:43:14.221Z,73.83
2023-04-17T03:45:41.138Z,74.08
2023-04-17T03:48:08.382Z,74.53
2023-04-17T03:50:35.863Z,73.79
2023-04-17T03:53:02.831Z,73.71
2023-04-17T03:55:29.776Z,73.66
2023-04-17T03:57:56.792Z,73.44
2023-04-17T04:00:23.830Z,74.34
2023-04-17T04:02:50.908Z,74.27
2023-04-17T04:05:18.078Z,74.08
2023-04-17T04:07:44.977Z,73.75
2023-04-17T04:10:11.961Z,73.59
2023-04-17T04:12:38.900Z,73.67
2023-04-17T04:15:06.636Z,73.37
2023-04-17T04:17:33.701Z,73.56
2023-04-17T04:20:00.760Z,73.87
2023-04-17T04:22:29.330Z,73.67
2023-04-17T04:24:56.698Z,73.66
2023-04-17T04:27:23.639Z,73.81
2023-04-17T04:29:50.562Z,73.51
2023-04-17T04:32:17.569Z,73.63
2023-04-17T04:34:44.982Z,73.72
2023-04-17T04:37:15.754Z,73.49
2023-04-17T04:39:43.444Z,73.93
2023-04-17T04:42:10.599Z,73.79
2023-04-17T04:44:40.245Z,74.23
2023-04-17T04:47:07.205Z,73.81
2023-04-17T04:49:34.090Z,74.24
2023-04-17T04:52:00.986Z,73.74
2023-04-17T04:54:27.910Z,73.29
2023-04-17T04:56:54.869Z,73.86
2023-04-17T04:59:21.826Z,74.33
2023-04-17T05:01:49.528Z,73.89
2023-04-17T05:04:16.603Z,73.81
2023-04-17T05:06:43.584Z,73.38
2023-04-17T05:09:11.008Z,73.56
2023-04-17T05:11:38.064Z,73.90
2023-04-17T05:14:04.954Z,73.64
2023-04-17T05:16:31.884Z,73.62
2023-04-17T05:18:58.840Z,73.51
2023-04-17T05:21:26.052Z,73.71
2023-04-17T05:23:53.716Z,73.50
2023-04-17T05:26:23.482Z,74.29
2023-04-17T05:28:50.622Z,74.15
2023-04-17T05:31:18.180Z,73.85
2023-04-17T05:33:45.381Z,73.56
2023-04-17T05:36:12.285Z,73.53
2023-04-17T05:38:39.271Z,73.56
2023-04-17T05:41:07.722Z,73.47
2023-04-17T05:43:34.781Z,73.49
2023-04-17T05:46:02.175Z,73.42
2023-04-17T05:48:30.370Z,73.19
2023-04-17T05:50:57.799Z,73.24
2023-04-17T05:53:27.455Z,72.99
2023-04-17T05:55:54.629Z,73.73
2023-04-17T05:58:24.226Z,73.05
2023-04-17T06:00:52.589Z,73.04
2023-04-17T06:03:20.270Z,73.17
2023-04-17T06:05:47.614Z,72.96
2023-04-17T06:08:14.564Z,72.71
2023-04-17T06:10:41.751Z,73.20
2023-04-17T06:13:09.364Z,72.87
2023-04-17T06:15:36.739Z,73.23
2023-04-17T06:18:03.795Z,73.32
2023-04-17T06:20:31.007Z,73.36
2023-04-17T06:22:57.906Z,73.24
2023-04-17T06:25:24.866Z,73.07
2023-04-17T06:27:51.803Z,72.99
2023-04-17T06:30:18.933Z,72.84
2023-04-17T06:32:45.975Z,72.49
2023-04-17T06:35:13.235Z,72.60
2023-04-17T06:37:40.207Z,72.29
2023-04-17T06:40:07.790Z,72.19
2023-04-17T06:42:35.632Z,71.85
2023-04-17T06:45:02.653Z,71.83
2023-04-17T06:47:29.695Z,71.79
2023-04-17T06:49:58.194Z,71.84
2023-04-17T06:52:25.210Z,71.49
2023-04-17T06:54:56.136Z,71.30
2023-04-17T06:57:23.135Z,71.49
2023-04-17T06:59:50.130Z,71.27
2023-04-17T07:02:18.110Z,71.49
2023-04-17T07:04:45.366Z,71.63
2023-04-17T07:07:12.534Z,71.73
2023-04-17T07:09:43.255Z,71.40
2023-04-17T07:12:10.286Z,71.59
2023-04-17T07:14:38.470Z,71.19
2023-04-17T07:17:05.471Z,71.20
2023-04-17T07:19:34.131Z,70.89
2023-04-17T07:22:01.123Z,70.81
2023-04-17T07:24:28.199Z,70.75
2023-04-17T07:26:55.225Z,70.56
2023-04-17T07:29:22.174Z,70.54
2023-04-17T07:31:49.242Z,70.66
2023-04-17T07:34:16.116Z,70.52
2023-04-17T07:36:43.372Z,70.16
2023-04-17T07:39:10.759Z,69.64
2023-04-17T07:41:37.963Z,69.41
2023-04-17T07:44:05.990Z,68.80
2023-04-17T07:46:33.226Z,68.59
2023-04-17T07:49:00.225Z,67.76
2023-04-17T07:51:27.975Z,67.75
2023-04-17T07:53:55.032Z,67.74
2023-04-17T07:56:21.928Z,68.06
2023-04-17T07:58:52.184Z,68.38
2023-04-17T08:01:21.433Z,68.60
2023-04-17T08:03:49.304Z,68.25
2023-04-17T08:06:16.589Z,67.57
2023-04-17T08:08:47.660Z,67.23
2023-04-17T08:11:15.184Z,66.66
2023-04-17T08:13:42.180Z,65.88
2023-04-17T08:16:10.176Z,64.84
2023-04-17T08:18:37.914Z,64.50
2023-04-17T08:21:05.138Z,64.02
2023-04-17T08:23:32.056Z,64.18
2023-04-17T08:25:58.973Z,64.36
2023-04-17T08:28:26.386Z,64.68
2023-04-17T08:30:53.479Z,64.99
2023-04-17T08:33:20.594Z,64.32
2023-04-17T08:35:49.853Z,63.93
2023-04-17T08:38:16.934Z,63.80
2023-04-17T08:40:47.222Z,63.18
2023-04-17T08:43:16.414Z,62.75
2023-04-17T08:45:54.231Z,61.64
2023-04-17T08:48:22.753Z,61.76
2023-04-17T08:50:53.489Z,59.44
2023-04-17T08:53:21.245Z,59.84
2023-04-17T08:55:49.204Z,60.32
2023-04-17T08:58:16.626Z,60.47
2023-04-17T09:00:45.106Z,60.62
2023-04-17T09:03:14.330Z,60.41
2023-04-17T09:05:46.099Z,58.46
2023-04-17T09:08:21.005Z,58.85
2023-04-17T09:10:50.945Z,58.49
2023-04-17T09:13:25.036Z,57.55
2023-04-17T09:16:09.888Z,57.02
2023-04-17T09:18:38.674Z,57.14
2023-04-17T09:21:07.361Z,55.79
2023-04-17T09:23:52.062Z,53.72
2023-04-17T09:26:21.505Z,54.50
2023-04-17T09:29:09.011Z,54.57
2023-04-17T09:31:37.672Z,54.53
2023-04-17T09:34:07.836Z,54.54
2023-04-17T09:36:38.021Z,53.92
2023-04-17T09:39:25.138Z,54.01
2023-04-17T09:42:06.546Z,53.50
2023-04-17T09:44:37.004Z,53.03
2023-04-17T09:47:05.430Z,52.85
2023-04-17T09:49:45.078Z,52.33
2023-04-17T09:52:12.786Z,52.73
2023-04-17T09:54:40.177Z,52.67
2023-04-17T09:57:08.624Z,52.49
2023-04-17T09:59:45.531Z,52.26
2023-04-17T10:02:14.449Z,52.35
2023-04-17T10:04:42.394Z,52.06
2023-04-17T10:07:09.586Z,52.30
2023-04-17T10:09:37.179Z,52.21
2023-04-17T10:12:05.654Z,51.80
2023-04-17T10:14:36.813Z,51.98
2023-04-17T10:17:24.161Z,51.96
2023-04-17T10:19:51.325Z,51.95
2023-04-17T10:22:21.006Z,52.00
2023-04-17T10:25:15.625Z,49.76
2023-04-17T10:27:45.555Z,50.24
2023-04-17T10:30:13.516Z,49.94
2023-04-17T10:32:43.432Z,49.74
2023-04-17T10:35:19.554Z,49.69
2023-04-17T10:37:52.253Z,49.69
2023-04-17T10:40:30.184Z,50.37
2023-04-17T10:43:16.200Z,49.16
2023-04-17T10:46:05.198Z,48.86
2023-04-17T10:48:35.105Z,49.12
2023-04-17T10:51:24.107Z,49.00
2023-04-17T10:53:55.577Z,49.87
2023-04-17T10:56:27.900Z,50.34
2023-04-17T10:59:02.031Z,50.24
2023-04-17T11:01:40.017Z,50.34
2023-04-17T11:04:08.883Z,50.57
2023-04-17T11:06:43.267Z,50.65
2023-04-17T11:09:11.774Z,50.46
2023-04-17T11:11:44.601Z,50.16
2023-04-17T11:14:20.523Z,50.52
2023-04-17T11:16:49.947Z,50.21
2023-04-17T11:19:25.084Z,49.99
2023-04-17T11:22:01.616Z,49.81
2023-04-17T11:27:10.950Z,49.75
2023-04-17T11:29:37.860Z,49.00
2023-04-17T11:32:04.892Z,48.52
2023-04-17T11:34:31.892Z,48.63
2023-04-17T11:37:00.673Z,48.78
2023-04-17T11:39:32.377Z,48.53
2023-04-17T11:42:00.624Z,48.38
2023-04-17T11:44:28.985Z,48.29
2023-04-17T11:46:59.024Z,48.24
2023-04-17T11:49:31.248Z,48.85
2023-04-17T11:52:02.022Z,47.67
2023-04-17T11:54:29.635Z,46.00
2023-04-17T11:57:22.870Z,44.84
2023-04-17T11:59:49.736Z,46.30
2023-04-17T12:02:16.866Z,45.92
2023-04-17T12:04:44.168Z,45.56
2023-04-17T12:07:21.878Z,44.57
2023-04-17T12:09:56.580Z,44.30
2023-04-17T12:12:23.420Z,45.05
2023-04-17T12:14:50.420Z,44.78
2023-04-17T12:17:17.313Z,44.88
2023-04-17T12:19:45.382Z,44.45
2023-04-17T12:22:12.313Z,44.68
2023-04-17T12:24:39.218Z,44.51
2023-04-17T12:27:06.116Z,44.33
2023-04-17T12:29:43.828Z,44.70
2023-04-17T12:32:12.004Z,41.96
2023-04-17T12:34:39.101Z,41.90
2023-04-17T12:37:06.041Z,41.76
2023-04-17T12:39:33.509Z,40.88
2023-04-17T12:42:00.437Z,41.18
2023-04-17T12:44:27.347Z,41.52
2023-04-17T12:46:54.320Z,40.59
2023-04-17T12:49:21.749Z,41.44
2023-04-17T12:51:48.670Z,41.43
2023-04-17T12:54:15.589Z,41.02
2023-04-17T12:56:42.514Z,40.98
2023-04-17T12:59:09.457Z,41.32
2023-04-17T13:01:36.568Z,42.04
2023-04-17T13:04:03.983Z,41.43
2023-04-17T13:06:31.031Z,40.76
2023-04-17T13:08:57.954Z,40.45
2023-04-17T13:11:24.959Z,39.96
2023-04-17T13:13:52.046Z,40.19
2023-04-17T13:16:18.961Z,39.91
2023-04-17T13:18:45.870Z,40.71
2023-04-17T13:21:12.746Z,41.23
2023-04-17T13:23:39.629Z,41.72
2023-04-17T13:26:06.669Z,41.66
2023-04-17T13:28:33.529Z,41.82
2023-04-17T13:31:00.460Z,41.56
2023-04-17T13:33:27.362Z,40.50
2023-04-17T13:35:54.346Z,39.78
2023-04-17T13:38:21.183Z,38.71
2023-04-17T13:40:48.090Z,38.18
2023-04-17T13:43:14.909Z,38.76
2023-04-17T13:45:42.031Z,39.08
2023-04-17T13:48:08.930Z,40.09
2023-04-17T13:50:35.890Z,40.94
2023-04-17T13:53:03.137Z,41.16
2023-04-17T13:55:30.040Z,41.36
2023-04-17T13:57:57.673Z,42.03
2023-04-17T14:00:24.519Z,41.35
2023-04-17T14:02:51.640Z,40.60
2023-04-17T14:05:18.605Z,40.41
2023-04-17T14:07:45.552Z,40.29
2023-04-17T14:10:24.544Z,40.10
2023-04-17T14:12:51.363Z,40.81
2023-04-17T14:15:18.598Z,41.33
2023-04-17T14:17:45.628Z,41.59
2023-04-17T14:20:15.122Z,41.65
2023-04-17T14:22:42.064Z,41.87
2023-04-17T14:25:09.485Z,41.33
2023-04-17T14:27:36.484Z,40.09
2023-04-17T14:30:03.865Z,40.23
2023-04-17T14:32:31.046Z,40.28
2023-04-17T14:34:57.971Z,39.06
2023-04-17T14:37:28.360Z,38.86
2023-04-17T14:39:55.798Z,39.19
2023-04-17T14:42:22.666Z,39.37
2023-04-17T14:44:49.523Z,39.91
2023-04-17T14:47:16.557Z,40.28
2023-04-17T14:49:43.546Z,40.54
2023-04-17T14:52:10.529Z,41.06
2023-04-17T14:54:37.437Z,41.52
2023-04-17T14:57:04.422Z,42.45
2023-04-17T14:59:31.514Z,42.79
2023-04-17T15:01:58.486Z,43.05
2023-04-17T15:04:25.780Z,43.18
2023-04-17T15:06:52.841Z,43.25
2023-04-17T15:09:19.727Z,41.39
2023-04-17T15:11:47.543Z,40.97
2023-04-17T15:14:14.564Z,40.72
2023-04-17T15:16:41.515Z,40.96
2023-04-17T15:19:08.503Z,40.48
2023-04-17T15:21:35.556Z,39.78
2023-04-17T15:24:02.404Z,39.78
2023-04-17T15:26:29.236Z,40.05
2023-04-17T15:28:56.260Z,40.15
2023-04-17T15:31:23.437Z,39.40
2023-04-17T15:33:50.369Z,39.11
2023-04-17T15:36:17.310Z,39.37
2023-04-17T15:38:44.431Z,38.88
2023-04-17T15:41:11.447Z,38.54
2023-04-17T15:43:38.703Z,38.72
2023-04-17T15:46:05.863Z,39.25
2023-04-17T15:48:32.991Z,38.94
2023-04-17T15:51:02.311Z,38.70
2023-04-17T15:53:29.267Z,37.50
2023-04-17T15:55:56.491Z,37.56
2023-04-17T15:58:23.413Z,37.15
2023-04-17T16:00:50.636Z,36.31
2023-04-17T16:03:17.745Z,36.16
2023-04-17T16:05:44.763Z,36.12
2023-04-17T16:08:11.651Z,35.81
2023-04-17T16:10:38.615Z,35.38
2023-04-17T16:13:05.471Z,35.61
2023-04-17T16:15:32.433Z,35.49
2023-04-17T16:17:59.414Z,35.74
2023-04-17T16:20:26.437Z,36.01
2023-04-17T16:22:53.347Z,35.47
2023-04-17T16:25:20.913Z,35.06
2023-04-17T16:27:48.001Z,35.24
2023-04-17T16:30:15.081Z,34.79
2023-04-17T16:32:42.006Z,34.43
2023-04-17T16:35:09.254Z,34.65
2023-04-17T16:37:36.263Z,34.20
2023-04-17T16:40:05.195Z,34.24
2023-04-17T16:42:32.744Z,33.81
2023-04-17T16:44:59.942Z,34.07
2023-04-17T16:47:30.520Z,34.29
2023-04-17T16:49:57.710Z,33.92
2023-04-17T16:52:24.975Z,34.39
2023-04-17T16:54:52.015Z,33.90
2023-04-17T16:57:18.944Z,33.67
2023-04-17T16:59:45.926Z,33.54
2023-04-17T17:02:12.917Z,33.82
2023-04-17T17:04:39.979Z,33.64
2023-04-17T17:07:06.984Z,33.81
2023-04-17T17:09:33.873Z,34.69
2023-04-17T17:12:00.826Z,34.86
2023-04-17T17:14:27.742Z,35.36
2023-04-17T17:16:54.793Z,35.25
2023-04-17T17:19:21.775Z,35.60
2023-04-17T17:21:50.092Z,35.71
2023-04-17T17:24:17.101Z,36.09
2023-04-17T17:26:44.006Z,35.75
2023-04-17T17:29:11.062Z,35.94
2023-04-17T17:31:38.378Z,35.41
2023-04-17T17:34:22.441Z,35.46
2023-04-17T17:36:52.122Z,35.89
2023-04-17T17:39:19.166Z,36.54
2023-04-17T17:41:47.507Z,36.62
2023-04-17T17:44:14.869Z,36.56
2023-04-17T17:46:42.045Z,36.02
2023-04-17T17:49:09.030Z,35.70
2023-04-17T17:51:35.967Z,35.89
2023-04-17T17:54:02.900Z,36.58
2023-04-17T17:56:29.983Z,36.24
2023-04-17T17:58:57.016Z,36.61
2023-04-17T18:01:25.150Z,36.53
2023-04-17T18:03:53.331Z,36.63
2023-04-17T18:06:20.962Z,37.06
2023-04-17T18:08:47.987Z,36.85
2023-04-17T18:11:14.950Z,37.34
2023-04-17T18:13:41.830Z,37.28
2023-04-17T18:16:08.800Z,37.60
2023-04-17T18:18:35.820Z,37.62
2023-04-17T18:21:09.558Z,37.92
2023-04-17T18:23:36.503Z,38.08
2023-04-17T18:26:04.335Z,38.35
2023-04-17T18:28:31.319Z,37.73
2023-04-17T18:30:58.291Z,37.92
2023-04-17T18:33:25.588Z,37.76
2023-04-17T18:35:52.466Z,37.80
2023-04-17T18:38:19.349Z,38.09
2023-04-17T18:40:46.210Z,38.10
2023-04-17T18:43:13.147Z,38.27
2023-04-17T18:45:40.057Z,38.48
2023-04-17T18:48:06.970Z,38.36
2023-04-17T18:50:34.425Z,38.19
2023-04-17T18:53:01.964Z,38.85
2023-04-17T18:55:28.926Z,38.79
2023-04-17T18:57:55.807Z,38.69
2023-04-17T19:00:22.700Z,38.74
2023-04-17T19:02:49.853Z,38.95
2023-04-17T19:05:16.902Z,38.84
2023-04-17T19:07:43.861Z,38.99
2023-04-17T19:10:11.081Z,39.05
2023-04-17T19:12:38.108Z,39.24
2023-04-17T19:15:05.855Z,39.31
2023-04-17T19:17:32.816Z,39.25
2023-04-17T19:19:59.818Z,39.69
2023-04-17T19:22:26.753Z,39.76
2023-04-17T19:24:53.604Z,39.83
2023-04-17T19:27:20.868Z,40.12
2023-04-17T19:29:47.754Z,40.36
2023-04-17T19:32:17.799Z,40.14
2023-04-17T19:34:44.734Z,40.55
2023-04-17T19:37:11.774Z,40.70
2023-04-17T19:39:38.685Z,40.84
2023-04-17T19:42:05.938Z,40.90
2023-04-17T19:44:32.874Z,40.73
2023-04-17T19:46:59.925Z,40.81
2023-04-17T19:49:26.799Z,41.22
2023-04-17T19:51:53.716Z,41.38
2023-04-17T19:54:20.576Z,41.41
2023-04-17T19:56:47.609Z,41.75
2023-04-17T19:59:14.804Z,42.08
2023-04-17T20:01:43.747Z,41.82
2023-04-17T20:04:11.304Z,42.00
2023-04-17T20:06:39.668Z,41.88
2023-04-17T20:09:06.831Z,42.07
2023-04-17T20:11:34.361Z,41.98
2023-04-17T20:14:01.268Z,42.35
2023-04-17T20:16:28.360Z,42.50
2023-04-17T20:18:56.848Z,42.61
2023-04-17T20:21:24.355Z,42.60
2023-04-17T20:23:51.332Z,42.64
2023-04-17T20:26:18.608Z,42.75
2023-04-17T20:28:45.860Z,42.82
2023-04-17T20:31:12.769Z,43.01
2023-04-17T20:33:39.808Z,43.51
2023-04-17T20:36:06.839Z,43.62
2023-04-17T20:38:33.748Z,43.81
2023-04-17T20:41:00.663Z,44.28
2023-04-17T20:43:27.570Z,44.73
2023-04-17T20:45:54.536Z,44.95
2023-04-17T20:48:22.094Z,45.06
2023-04-17T20:50:49.116Z,45.15
2023-04-17T20:53:16.009Z,45.58
2023-04-17T20:55:42.935Z,45.95
2023-04-17T20:58:10.194Z,46.30
2023-04-17T21:00:40.146Z,46.51
2023-04-17T21:03:14.582Z,47.12
2023-04-17T21:05:41.591Z,47.59
2023-04-17T21:08:08.468Z,47.90
2023-04-17T21:10:35.397Z,47.80
2023-04-17T21:13:02.404Z,48.20
2023-04-17T21:15:29.261Z,48.51
2023-04-17T21:17:56.155Z,48.49
2023-04-17T21:20:23.265Z,48.54
2023-04-17T21:22:50.161Z,48.56
2023-04-17T21:25:17.069Z,48.74
2023-04-17T21:27:44.038Z,48.90
2023-04-17T21:30:11.238Z,48.69
2023-04-17T21:32:39.200Z,49.06
2023-04-17T21:35:06.623Z,49.31
2023-04-17T21:37:33.479Z,49.58
2023-04-17T21:40:00.393Z,49.58
2023-04-17T21:42:27.299Z,49.41
2023-04-17T21:44:54.131Z,49.38
2023-04-17T21:47:21.047Z,49.59
2023-04-17T21:49:48.773Z,49.22
2023-04-17T21:52:16.683Z,49.44
2023-04-17T21:54:44.428Z,49.49
2023-04-17T21:57:11.350Z,49.53
2023-04-17T21:59:38.334Z,49.46
2023-04-17T22:02:05.299Z,49.72
2023-04-17T22:04:32.232Z,49.68
2023-04-17T22:06:59.159Z,50.00
2023-04-17T22:09:28.454Z,50.37
2023-04-17T22:11:56.680Z,50.45
2023-04-17T22:14:23.585Z,50.32
2023-04-17T22:16:50.617Z,50.44
2023-04-17T22:19:17.600Z,50.63
2023-04-17T22:21:44.493Z,50.82
2023-04-17T22:24:11.893Z,51.04
2023-04-17T22:26:38.915Z,51.34
2023-04-17T22:29:05.848Z,51.32
2023-04-17T22:31:32.901Z,51.35
2023-04-17T22:33:59.969Z,51.48
2023-04-17T22:36:26.837Z,51.71
2023-04-17T22:38:53.728Z,51.73
2023-04-17T22:41:20.578Z,51.57
2023-04-17T22:43:50.570Z,51.67
2023-04-17T22:46:17.472Z,52.22
2023-04-17T22:48:45.227Z,52.00
2023-04-17T22:51:13.043Z,52.41
2023-04-17T22:53:39.937Z,52.53
2023-04-17T22:56:07.346Z,52.32
2023-04-17T22:58:34.262Z,52.44
2023-04-17T23:01:01.169Z,52.71
2023-04-17T23:03:28.130Z,53.02
2023-04-17T23:05:55.659Z,53.12
2023-04-17T23:08:23.705Z,53.10
2023-04-17T23:11:01.456Z,53.53
2023-04-17T23:13:29.144Z,53.67
2023-04-17T23:15:56.341Z,53.63
2023-04-17T23:18:23.282Z,53.93
2023-04-17T23:20:50.403Z,53.80
2023-04-17T23:23:18.674Z,54.26
2023-04-17T23:25:45.750Z,54.11
2023-04-17T23:28:12.709Z,54.42
2023-04-17T23:30:39.748Z,54.33
2023-04-17T23:33:07.093Z,54.98
2023-04-17T23:35:34.044Z,54.89
2023-04-17T23:38:01.007Z,55.11
2023-04-17T23:40:28.367Z,55.13
2023-04-17T23:42:55.584Z,55.96
2023-04-17T23:45:22.475Z,55.89
2023-04-17T23:47:49.387Z,56.31
2023-04-17T23:50:16.250Z,56.33
2023-04-17T23:52:43.126Z,56.47
2023-04-17T23:55:10.034Z,56.26
2023-04-17T23:57:38.156Z,56.61
